Time;durP1;ratioP1;P1;durP2;ratioP2;P2;SDS_P1;SDS_P2;PMS_P1;PMS_P2;Temp;Humidity;BMP_temperature;BMP_pressure;BME280_temperature;BME280_humidity;BME280_pressure;Samples;Min_cycle;Max_cycle;Signal;HPM_P1;HPM_P2
2022/02/05 00:02:37;;;;;;;3.75;1.45;;;6.40;80.70;;;;;;5071944;28;20065;-75
2022/02/05 00:05:03;;;;;;;5.88;1.40;;;6.40;80.50;;;;;;5070531;28;20047;-75
2022/02/05 00:07:32;;;;;;;4.15;1.60;;;6.40;80.30;;;;;;5069714;28;20028;-76
2022/02/05 00:12:47;;;;;;;4.50;1.60;;;6.40;80.10;;;;;;5071986;28;20036;-75
2022/02/05 00:39:58;;;;;;;4.25;1.50;;;6.30;79.10;;;;;;5056474;28;20521;-75
2022/02/05 00:42:37;;;;;;;4.80;1.70;;;6.30;79.20;;;;;;5068064;28;20048;-76
2022/02/05 00:45:07;;;;;;;5.32;1.50;;;6.30;79.00;;;;;;5069568;28;20024;-75
2022/02/05 00:47:33;;;;;;;4.63;1.30;;;6.30;79.10;;;;;;5068494;28;20115;-75
2022/02/05 00:50:01;;;;;;;5.82;1.50;;;6.30;79.10;;;;;;5069458;28;20016;-76
2022/02/05 00:52:27;;;;;;;5.07;1.38;;;6.30;79.10;;;;;;5070045;28;20674;-76
2022/02/05 00:55:01;;;;;;;4.43;1.40;;;6.30;79.00;;;;;;5068337;28;20111;-76
2022/02/05 00:59:55;;;;;;;3.70;1.30;;;6.30;79.10;;;;;;5065243;28;20024;-76
2022/02/05 01:02:20;;;;;;;2.97;1.27;;;6.30;79.00;;;;;;5064545;28;20119;-75
2022/02/05 01:04:46;;;;;;;4.32;1.35;;;6.40;79.10;;;;;;5062601;28;20020;-75
2022/02/05 01:07:11;;;;;;;2.80;1.23;;;6.40;79.10;;;;;;5064562;28;20049;-74
2022/02/05 01:09:39;;;;;;;4.40;1.45;;;6.40;79.20;;;;;;5067014;28;20031;-75
2022/02/05 01:12:05;;;;;;;4.55;1.67;;;6.40;79.20;;;;;;5068391;28;20070;-75
2022/02/05 01:14:41;;;;;;;3.55;1.48;;;6.40;79.30;;;;;;5061083;28;20099;-75
2022/02/05 01:17:09;;;;;;;2.17;1.55;;;6.30;79.30;;;;;;5050369;28;20025;-75
2022/02/05 01:22:06;;;;;;;3.33;1.40;;;6.30;79.60;;;;;;5057174;28;20024;-75
2022/02/05 01:24:32;;;;;;;4.28;2.10;;;6.30;79.70;;;;;;5068411;28;20024;-76
2022/02/05 01:27:04;;;;;;;3.20;1.40;;;6.30;79.60;;;;;;5067439;28;20021;-75
2022/02/05 01:29:59;;;;;;;6.55;2.03;;;6.30;79.70;;;;;;5066204;28;20028;-76
2022/02/05 01:32:28;;;;;;;2.60;1.33;;;6.30;79.70;;;;;;5067629;28;20036;-76
2022/02/05 01:35:04;;;;;;;6.00;1.58;;;6.30;79.60;;;;;;5053931;28;20048;-76
2022/02/05 01:51:40;;;;;;;4.32;1.63;;;6.30;79.70;;;;;;5069234;28;20174;-75
2022/02/05 01:54:17;;;;;;;3.95;1.50;;;6.30;79.60;;;;;;5062159;28;20077;-75
2022/02/05 01:56:55;;;;;;;4.78;1.70;;;6.30;79.70;;;;;;5067308;28;20372;-75
2022/02/05 02:13:03;;;;;;;5.95;1.70;;;6.30;79.40;;;;;;5068891;28;20601;-76
2022/02/05 02:15:36;;;;;;;3.38;1.30;;;6.30;79.30;;;;;;5068687;28;20106;-76
2022/02/05 02:18:20;;;;;;;8.30;1.80;;;6.30;79.30;;;;;;5068975;28;20021;-76
2022/02/05 02:21:04;;;;;;;5.70;1.60;;;6.20;79.20;;;;;;5067335;28;20101;-76
2022/02/05 02:23:48;;;;;;;4.53;1.52;;;6.20;79.10;;;;;;5063416;28;20032;-77
2022/02/05 02:31:22;;;;;;;5.55;1.60;;;6.20;79.00;;;;;;5062568;28;20124;-75
2022/02/05 02:33:52;;;;;;;3.95;1.55;;;6.20;79.10;;;;;;5066660;28;20020;-77
2022/02/05 02:36:32;;;;;;;5.05;1.67;;;6.20;79.20;;;;;;5068234;28;20033;-76
2022/02/05 02:39:06;;;;;;;6.03;1.58;;;6.20;79.20;;;;;;5067809;28;20073;-76
2022/02/05 02:41:40;;;;;;;3.42;1.50;;;6.20;79.20;;;;;;5067895;28;20086;-76
2022/02/05 02:44:06;;;;;;;6.45;1.80;;;6.20;79.20;;;;;;5069397;28;20032;-77
2022/02/05 02:46:31;;;;;;;5.25;1.75;;;6.20;79.10;;;;;;5069416;28;20025;-76
2022/02/05 02:48:59;;;;;;;4.47;1.88;;;6.20;79.10;;;;;;5068124;28;20032;-76
2022/02/05 02:57:10;;;;;;;5.43;1.55;;;6.10;79.00;;;;;;5069064;28;20133;-77
2022/02/05 02:59:48;;;;;;;4.68;1.20;;;6.10;79.20;;;;;;5068180;28;20029;-76
2022/02/05 03:02:16;;;;;;;5.13;1.80;;;6.10;79.20;;;;;;5062887;28;20028;-76
2022/02/05 03:04:42;;;;;;;5.28;1.48;;;6.10;79.10;;;;;;5066247;28;20119;-76
2022/02/05 03:07:07;;;;;;;5.32;1.50;;;6.10;79.10;;;;;;5059373;28;20103;-75
2022/02/05 03:09:33;;;;;;;4.57;1.55;;;6.10;79.20;;;;;;5061902;28;20024;-77
2022/02/05 03:11:59;;;;;;;5.15;1.58;;;6.10;79.10;;;;;;5067583;28;20043;-76
2022/02/05 03:14:25;;;;;;;5.03;1.45;;;6.10;79.10;;;;;;5063404;28;20053;-76
2022/02/05 03:16:52;;;;;;;6.35;1.80;;;6.10;79.20;;;;;;5068339;28;20033;-76
2022/02/05 03:19:18;;;;;;;7.72;1.80;;;6.20;79.40;;;;;;5068144;28;20023;-75
2022/02/05 03:21:44;;;;;;;6.70;1.85;;;6.20;79.20;;;;;;5070867;28;20068;-75
2022/02/05 03:24:11;;;;;;;5.20;1.58;;;6.10;79.10;;;;;;5070640;28;20025;-75
2022/02/05 03:26:38;;;;;;;7.88;1.85;;;6.10;79.20;;;;;;5071233;28;20111;-75
2022/02/05 03:29:06;;;;;;;4.85;1.52;;;6.20;79.30;;;;;;5060004;28;20067;-76
2022/02/05 03:31:32;;;;;;;3.65;1.40;;;6.20;79.90;;;;;;5072170;28;20035;-77
2022/02/05 03:33:58;;;;;;;4.65;1.58;;;6.20;79.40;;;;;;5063153;28;20052;-78
2022/02/05 03:36:23;;;;;;;4.45;1.60;;;6.20;79.40;;;;;;5069702;28;20060;-77
2022/02/05 03:38:49;;;;;;;5.07;1.67;;;6.20;79.30;;;;;;5071526;28;20111;-77
2022/02/05 03:41:14;;;;;;;7.70;1.67;;;6.20;79.40;;;;;;5069214;28;20024;-77
2022/02/05 03:43:40;;;;;;;4.00;1.45;;;6.20;79.30;;;;;;5071864;28;20036;-77
2022/02/05 03:46:06;;;;;;;7.25;1.73;;;6.20;79.30;;;;;;5070068;28;20009;-77
2022/02/05 03:48:31;;;;;;;6.63;1.52;;;6.10;79.30;;;;;;5072555;28;20407;-77
2022/02/05 03:50:57;;;;;;;7.40;1.95;;;6.20;79.40;;;;;;5071056;28;20024;-76
2022/02/05 03:53:22;;;;;;;5.05;1.50;;;6.10;79.40;;;;;;5071854;28;20024;-77
2022/02/05 03:55:48;;;;;;;4.32;1.40;;;6.10;79.40;;;;;;5071844;28;20115;-78
2022/02/05 03:58:14;;;;;;;8.68;1.73;;;6.20;79.50;;;;;;5072357;28;20065;-81
2022/02/05 04:00:40;;;;;;;6.32;1.70;;;6.20;79.50;;;;;;5072344;28;20056;-77
2022/02/05 04:03:09;;;;;;;5.68;1.70;;;6.20;79.50;;;;;;5072127;28;20056;-76
2022/02/05 04:05:34;;;;;;;3.30;1.42;;;6.20;79.60;;;;;;5078745;28;20116;-77
2022/02/05 04:08:01;;;;;;;5.25;1.70;;;6.20;79.60;;;;;;5071424;28;20123;-76
2022/02/05 04:10:30;;;;;;;3.75;1.70;;;6.20;79.70;;;;;;5069448;28;20016;-77
2022/02/05 04:16:08;;;;;;;5.93;1.40;;;6.10;79.80;;;;;;5069622;28;20063;-78
2022/02/05 04:18:34;;;;;;;6.90;2.10;;;6.10;79.80;;;;;;5072007;28;20058;-77
2022/02/05 04:21:00;;;;;;;5.15;1.52;;;6.10;79.80;;;;;;5071944;28;20021;-76
2022/02/05 04:23:26;;;;;;;4.80;1.40;;;6.10;79.90;;;;;;5071752;28;20048;-76
2022/02/05 04:25:51;;;;;;;6.07;1.80;;;6.00;80.50;;;;;;5071811;28;20115;-77
2022/02/05 04:28:17;;;;;;;7.90;2.30;;;6.00;80.00;;;;;;5070644;28;20017;-76
2022/02/05 04:30:42;;;;;;;7.10;2.08;;;6.00;80.10;;;;;;5070921;28;20406;-76
2022/02/05 04:33:08;;;;;;;7.20;1.77;;;6.00;80.00;;;;;;5071013;28;20035;-76
2022/02/05 04:35:33;;;;;;;8.30;2.25;;;6.00;80.10;;;;;;5063527;28;20024;-75
2022/02/05 04:38:02;;;;;;;2.85;1.13;;;6.00;80.10;;;;;;5071045;28;20027;-78
2022/02/05 04:40:31;;;;;;;6.78;1.70;;;6.00;80.20;;;;;;5070139;28;20134;-77
2022/02/05 04:51:28;;;;;;;5.53;1.58;;;5.90;80.20;;;;;;5070474;28;19935;-75
2022/02/05 04:56:27;;;;;;;4.05;1.58;;;5.90;80.40;;;;;;5070228;28;20033;-75
2022/02/05 05:01:44;;;;;;;5.00;1.60;;;5.90;80.50;;;;;;5066930;28;20025;-76
2022/02/05 05:04:35;;;;;;;7.15;2.22;;;5.90;80.60;;;;;;5065389;28;20205;-76
2022/02/05 05:20:12;;;;;;;9.30;1.98;;;6.00;80.50;;;;;;5070332;28;20117;-77
2022/02/05 05:22:38;;;;;;;6.05;2.00;;;6.00;80.50;;;;;;5069915;28;20486;-77
2022/02/05 05:25:04;;;;;;;5.00;1.70;;;6.00;80.50;;;;;;5069362;28;20036;-77
2022/02/05 05:27:31;;;;;;;6.47;1.80;;;6.00;80.50;;;;;;5068702;28;20059;-77
2022/02/05 05:29:56;;;;;;;5.60;1.70;;;6.00;80.50;;;;;;5061363;28;20032;-77
2022/02/05 05:32:22;;;;;;;5.22;1.80;;;6.00;80.50;;;;;;5064389;28;20032;-78
2022/02/05 05:34:48;;;;;;;8.05;1.90;;;6.10;80.70;;;;;;5069711;28;20036;-77
2022/02/05 05:37:14;;;;;;;5.65;1.90;;;6.10;80.60;;;;;;5068958;28;20025;-77
2022/02/05 05:39:42;;;;;;;5.07;1.75;;;6.10;80.70;;;;;;5068950;28;20020;-77
2022/02/05 05:42:13;;;;;;;4.05;1.58;;;6.10;80.70;;;;;;5066918;28;20017;-77
2022/02/05 05:52:21;;;;;;;5.10;1.65;;;6.00;80.70;;;;;;5069204;28;20385;-77
2022/02/05 05:54:46;;;;;;;7.40;1.75;;;6.00;80.80;;;;;;5069344;28;20111;-77
2022/02/05 05:57:12;;;;;;;4.90;1.88;;;6.00;80.90;;;;;;5068410;28;20128;-78
2022/02/05 05:59:39;;;;;;;7.88;1.70;;;5.90;80.80;;;;;;5068184;28;20013;-78
2022/02/05 06:02:05;;;;;;;4.50;1.70;;;6.00;81.00;;;;;;5058552;28;20020;-78
2022/02/05 06:04:31;;;;;;;8.05;1.73;;;5.90;80.90;;;;;;5061294;28;20035;-78
2022/02/05 06:06:56;;;;;;;8.20;1.73;;;5.90;80.90;;;;;;5069215;28;20020;-78
2022/02/05 06:09:22;;;;;;;6.30;1.70;;;6.00;81.00;;;;;;5068364;28;20037;-78
2022/02/05 06:11:49;;;;;;;6.63;1.92;;;6.00;81.10;;;;;;5067601;28;20037;-77
2022/02/05 06:14:20;;;;;;;5.07;1.80;;;6.10;81.10;;;;;;5059590;28;20079;-77
2022/02/05 06:16:50;;;;;;;4.25;1.50;;;6.10;81.00;;;;;;5067954;28;20024;-77
2022/02/05 06:19:17;;;;;;;4.60;1.70;;;6.10;81.10;;;;;;5052386;28;20442;-78
2022/02/05 06:21:43;;;;;;;5.93;1.70;;;6.10;81.00;;;;;;5068304;28;20066;-77
2022/02/05 06:24:09;;;;;;;8.88;2.10;;;6.10;81.00;;;;;;5069250;28;20032;-77
2022/02/05 06:26:34;;;;;;;11.23;1.60;;;6.00;81.00;;;;;;5068666;28;20162;-77
2022/02/05 06:29:00;;;;;;;7.15;1.60;;;6.10;81.20;;;;;;5068326;28;20479;-77
2022/02/05 06:31:25;;;;;;;4.93;1.75;;;6.10;81.20;;;;;;5072687;28;20086;-77
2022/02/05 06:33:51;;;;;;;6.32;2.03;;;6.10;81.10;;;;;;5067778;28;20090;-76
2022/02/05 06:36:16;;;;;;;3.72;1.25;;;6.00;81.20;;;;;;5068251;28;20028;-77
2022/02/05 06:38:42;;;;;;;4.63;1.63;;;6.00;81.20;;;;;;5062282;28;20464;-78
2022/02/05 06:41:07;;;;;;;5.63;1.50;;;6.10;81.20;;;;;;5067227;28;20027;-78
2022/02/05 06:43:33;;;;;;;5.18;1.70;;;6.10;81.20;;;;;;5068891;28;20393;-77
2022/02/05 06:45:58;;;;;;;6.28;1.60;;;6.10;81.20;;;;;;5068609;28;20036;-77
2022/02/05 06:48:24;;;;;;;8.20;1.80;;;6.10;81.30;;;;;;5069900;28;20039;-77
2022/02/05 06:50:50;;;;;;;4.63;1.30;;;6.10;81.20;;;;;;5069146;28;20509;-77
2022/02/05 06:53:15;;;;;;;4.60;1.60;;;6.10;81.20;;;;;;5062864;28;21733;-77
2022/02/05 06:55:41;;;;;;;4.65;1.65;;;6.10;81.20;;;;;;5063479;28;20040;-76
2022/02/05 06:58:07;;;;;;;5.75;1.90;;;6.00;81.20;;;;;;5073768;28;20065;-77
2022/02/05 07:00:32;;;;;;;10.88;1.90;;;6.00;81.20;;;;;;5071897;28;20105;-77
2022/02/05 07:02:58;;;;;;;6.47;2.10;;;6.00;81.20;;;;;;5072942;28;20036;-77
2022/02/05 07:05:24;;;;;;;6.25;1.77;;;5.90;81.10;;;;;;5071862;28;20021;-77
2022/02/05 07:07:50;;;;;;;5.57;1.83;;;6.00;81.30;;;;;;5072402;28;20033;-77
2022/02/05 07:10:15;;;;;;;4.78;1.65;;;5.90;81.20;;;;;;5071616;28;20032;-77
2022/02/05 07:13:12;;;;;;;5.82;1.58;;;5.90;81.20;;;;;;5062808;28;20835;-78
2022/02/05 07:15:31;;;;;;;7.03;1.80;;;5.90;81.20;;;;;;5063312;28;20510;-77
2022/02/05 07:30:59;;;;;;;8.77;1.90;;;5.90;81.50;;;;;;5064454;28;20553;-78
2022/02/05 07:33:24;;;;;;;8.23;2.20;;;5.80;81.50;;;;;;5067945;28;20487;-80
2022/02/05 07:35:50;;;;;;;8.27;2.30;;;5.80;81.60;;;;;;5071036;28;20096;-79
2022/02/05 07:38:16;;;;;;;5.47;2.08;;;5.70;81.60;;;;;;5071017;28;20036;-79
2022/02/05 07:40:42;;;;;;;4.95;1.70;;;5.70;81.70;;;;;;5069459;28;20032;-78
2022/02/05 07:43:07;;;;;;;4.60;1.77;;;5.70;81.70;;;;;;5070196;28;20068;-79
2022/02/05 07:45:33;;;;;;;7.43;2.35;;;5.70;81.80;;;;;;5067349;28;20048;-79
2022/02/05 07:47:59;;;;;;;3.97;1.63;;;5.70;81.90;;;;;;5071007;28;20419;-77
2022/02/05 07:50:24;;;;;;;7.50;2.38;;;5.70;81.90;;;;;;5069047;28;20028;-77
2022/02/05 07:52:50;;;;;;;7.88;2.15;;;5.80;81.80;;;;;;5068959;28;20032;-78
2022/02/05 07:55:15;;;;;;;5.15;1.95;;;5.80;81.90;;;;;;5064036;28;20027;-77
2022/02/05 07:57:41;;;;;;;7.10;2.20;;;5.80;81.90;;;;;;5067283;28;20534;-78
2022/02/05 08:00:07;;;;;;;7.20;2.20;;;5.80;81.90;;;;;;5068498;28;20021;-77
2022/02/05 08:02:32;;;;;;;4.10;1.77;;;5.80;81.80;;;;;;5070701;28;20027;-78
2022/02/05 08:04:58;;;;;;;3.45;1.70;;;5.80;81.80;;;;;;5068881;28;20028;-78
2022/02/05 08:07:23;;;;;;;6.18;2.00;;;5.90;81.70;;;;;;5065371;28;20028;-78
2022/02/05 08:10:02;;;;;;;8.02;2.22;;;5.90;81.70;;;;;;5067552;28;20027;-79
2022/02/05 08:12:29;;;;;;;7.22;2.10;;;5.90;81.80;;;;;;5059072;28;20075;-78
2022/02/05 08:14:57;;;;;;;6.07;2.22;;;5.90;81.70;;;;;;5069785;28;20021;-78
2022/02/05 08:17:27;;;;;;;6.63;2.10;;;5.90;81.70;;;;;;5071746;28;20028;-78
2022/02/05 08:19:52;;;;;;;6.88;2.55;;;5.90;81.70;;;;;;5072429;28;20389;-78
2022/02/05 08:22:18;;;;;;;6.75;2.58;;;5.90;81.70;;;;;;5071776;28;20020;-78
2022/02/05 08:24:45;;;;;;;9.70;2.28;;;5.90;81.70;;;;;;5069852;28;20039;-78
2022/02/05 08:27:10;;;;;;;8.95;2.33;;;5.90;82.30;;;;;;5068564;28;20013;-78
2022/02/05 08:29:39;;;;;;;9.35;2.60;;;5.90;81.60;;;;;;5072024;28;20028;-79
2022/02/05 08:32:06;;;;;;;6.32;2.28;;;6.00;81.70;;;;;;5066959;28;20059;-78
2022/02/05 08:34:31;;;;;;;5.80;2.20;;;6.00;81.60;;;;;;5052310;28;20396;-78
2022/02/05 08:36:58;;;;;;;6.85;2.20;;;6.00;81.50;;;;;;5052712;28;20029;-78
2022/02/05 08:39:25;;;;;;;6.38;2.15;;;6.10;81.60;;;;;;5071715;28;20476;-78
2022/02/05 08:41:51;;;;;;;10.02;2.30;;;6.10;81.40;;;;;;5052604;28;20028;-79
2022/02/05 08:44:16;;;;;;;5.93;2.00;;;6.10;81.30;;;;;;5062724;28;20476;-79
2022/02/05 08:46:42;;;;;;;8.45;2.45;;;6.20;81.40;;;;;;5069868;28;20027;-78
2022/02/05 08:49:09;;;;;;;6.68;2.17;;;6.20;81.30;;;;;;5058120;28;20036;-78
2022/02/05 08:51:35;;;;;;;6.57;2.53;;;6.20;81.30;;;;;;5064590;28;20189;-79
2022/02/05 08:54:00;;;;;;;7.90;2.40;;;6.20;81.30;;;;;;5070181;28;20023;-79
2022/02/05 08:56:27;;;;;;;10.45;2.83;;;6.20;81.30;;;;;;5061853;28;20037;-79
2022/02/05 08:58:54;;;;;;;9.65;2.85;;;6.20;81.30;;;;;;5059725;28;20029;-79
2022/02/05 09:01:26;;;;;;;6.20;2.33;;;6.10;81.20;;;;;;5057544;28;20435;-79
2022/02/05 09:06:28;;;;;;;6.40;2.40;;;6.10;81.40;;;;;;5063569;28;20029;-78
2022/02/05 09:09:06;;;;;;;7.30;2.25;;;6.20;81.50;;;;;;5048829;28;20037;-79
2022/02/05 09:11:38;;;;;;;7.13;2.40;;;6.20;81.40;;;;;;5066833;28;20494;-79
2022/02/05 09:14:29;;;;;;;8.88;2.78;;;6.30;81.30;;;;;;5063860;28;20025;-78
2022/02/05 09:16:55;;;;;;;9.68;2.72;;;6.20;81.30;;;;;;5071416;28;20020;-79
2022/02/05 09:19:20;;;;;;;8.73;2.80;;;6.30;81.30;;;;;;5063062;28;20035;-79
2022/02/05 09:21:46;;;;;;;7.68;2.45;;;6.30;81.20;;;;;;5059777;28;20028;-79
2022/02/05 09:24:11;;;;;;;6.05;2.70;;;6.30;81.20;;;;;;5064205;28;20013;-79
2022/02/05 09:26:43;;;;;;;6.78;2.40;;;6.30;81.20;;;;;;5067166;28;20036;-79
2022/02/05 09:29:21;;;;;;;8.60;2.42;;;6.40;81.20;;;;;;5070170;28;20037;-79
2022/02/05 09:31:48;;;;;;;7.10;2.83;;;6.40;81.10;;;;;;5062232;28;20043;-79
2022/02/05 09:34:13;;;;;;;7.57;2.05;;;6.50;81.10;;;;;;5069629;28;20017;-76
2022/02/05 09:36:40;;;;;;;6.57;2.20;;;6.50;81.00;;;;;;5068569;28;20029;-77
2022/02/05 09:39:07;;;;;;;6.97;2.40;;;6.60;81.00;;;;;;5061514;28;20013;-78
2022/02/05 09:41:32;;;;;;;9.43;2.60;;;6.60;80.90;;;;;;5058216;28;20078;-77
2022/02/05 09:43:58;;;;;;;7.63;2.33;;;6.70;80.90;;;;;;5063711;28;20384;-77
2022/02/05 09:46:24;;;;;;;5.72;1.83;;;6.70;80.60;;;;;;5064679;28;20100;-77
2022/02/05 09:48:51;;;;;;;5.78;2.50;;;6.70;80.60;;;;;;5063250;28;20085;-77
2022/02/05 09:51:19;;;;;;;6.28;2.22;;;6.80;80.50;;;;;;5063016;28;20081;-77
2022/02/05 09:53:49;;;;;;;9.98;2.75;;;6.90;80.50;;;;;;5061089;28;20027;-78
2022/02/05 09:56:19;;;;;;;8.23;2.40;;;6.90;80.30;;;;;;5062620;28;20063;-76
2022/02/05 09:58:45;;;;;;;8.60;3.10;;;7.00;80.30;;;;;;5060435;28;20024;-77
2022/02/05 10:01:19;;;;;;;5.68;2.15;;;7.10;80.20;;;;;;5065838;28;20495;-77
2022/02/05 10:03:46;;;;;;;8.90;2.25;;;7.10;80.00;;;;;;5061170;28;20434;-77
2022/02/05 10:06:20;;;;;;;8.95;2.58;;;7.10;80.50;;;;;;5059179;28;20100;-77
2022/02/05 10:09:05;;;;;;;5.43;2.63;;;7.20;79.50;;;;;;5064709;28;20459;-77
2022/02/05 10:11:59;;;;;;;8.68;2.28;;;7.20;79.40;;;;;;5063565;28;20513;-76
2022/02/05 10:14:27;;;;;;;5.78;2.10;;;7.30;79.40;;;;;;5062023;28;20429;-77
2022/02/05 10:16:58;;;;;;;8.18;2.40;;;7.30;79.30;;;;;;5060820;28;20048;-78
2022/02/05 10:19:43;;;;;;;6.13;2.30;;;7.40;79.10;;;;;;5065335;28;20574;-78
2022/02/05 10:22:09;;;;;;;8.18;2.65;;;7.40;78.90;;;;;;5061963;28;20039;-78
2022/02/05 10:24:34;;;;;;;8.82;2.10;;;7.40;78.80;;;;;;5064395;28;20112;-77
2022/02/05 10:27:00;;;;;;;5.28;2.28;;;7.50;78.80;;;;;;5061835;28;20455;-78
2022/02/05 10:29:27;;;;;;;7.07;2.10;;;7.50;78.70;;;;;;5063778;28;20107;-76
2022/02/05 10:32:09;;;;;;;6.50;2.30;;;7.60;78.60;;;;;;5055991;28;20028;-77
2022/02/05 10:35:04;;;;;;;6.03;2.20;;;7.70;78.10;;;;;;5061565;28;20063;-77
2022/02/05 10:37:36;;;;;;;4.82;2.00;;;7.70;78.60;;;;;;5064449;28;20111;-78
2022/02/05 10:40:12;;;;;;;3.97;1.90;;;7.60;77.70;;;;;;5063293;28;20036;-78
2022/02/05 10:43:03;;;;;;;5.28;1.90;;;7.70;77.60;;;;;;5063171;28;20024;-78
2022/02/05 10:45:43;;;;;;;9.88;2.30;;;7.60;77.50;;;;;;5058586;28;20542;-79
2022/02/05 10:48:11;;;;;;;6.57;2.50;;;7.50;76.50;;;;;;5054979;28;20442;-79
2022/02/05 10:50:36;;;;;;;7.30;2.00;;;7.50;76.70;;;;;;5057341;28;20028;-79
2022/02/05 10:53:18;;;;;;;10.20;2.00;;;7.50;76.80;;;;;;5060549;28;20744;-79
2022/02/05 11:07:17;;;;;;;9.63;2.40;;;7.60;76.50;;;;;;5061341;28;20067;-79
2022/02/05 11:09:53;;;;;;;9.98;2.22;;;7.60;76.20;;;;;;5055441;28;20047;-81
2022/02/05 11:20:12;;;;;;;6.03;1.90;;;7.60;75.90;;;;;;5065392;28;20024;-79
2022/02/05 11:22:47;;;;;;;8.98;2.58;;;7.60;75.80;;;;;;5066736;28;20104;-79
2022/02/05 11:25:14;;;;;;;8.23;2.03;;;7.60;75.40;;;;;;5063278;28;20527;-80
2022/02/05 11:27:47;;;;;;;8.48;2.55;;;7.50;75.30;;;;;;5053695;28;20056;-79
2022/02/05 11:30:29;;;;;;;8.43;2.33;;;7.50;75.20;;;;;;5064961;28;20376;-79
2022/02/05 11:32:58;;;;;;;9.57;2.35;;;7.60;75.30;;;;;;5064805;28;20040;-80
2022/02/05 11:35:58;;;;;;;5.57;2.05;;;7.60;75.40;;;;;;5062623;28;20247;-79
2022/02/05 11:38:29;;;;;;;8.18;2.30;;;7.60;75.40;;;;;;5064421;28;20571;-79
2022/02/05 11:40:55;;;;;;;6.53;2.20;;;7.60;75.20;;;;;;5056555;28;20029;-79
2022/02/05 11:43:29;;;;;;;7.40;2.40;;;7.70;75.20;;;;;;5067589;28;20032;-78
2022/02/05 11:46:15;;;;;;;8.82;2.35;;;7.70;75.10;;;;;;5061898;28;20036;-79
2022/02/05 11:48:50;;;;;;;8.43;2.40;;;7.70;75.00;;;;;;5063233;28;20039;-78
2022/02/05 11:51:21;;;;;;;9.35;3.03;;;7.70;74.70;;;;;;5065606;28;20039;-80
2022/02/05 11:53:55;;;;;;;9.73;2.10;;;7.60;74.60;;;;;;5070224;28;20060;-79
2022/02/05 11:56:49;;;;;;;10.00;2.75;;;7.60;74.80;;;;;;5069710;28;20430;-81
2022/02/05 11:59:26;;;;;;;7.63;2.03;;;7.60;74.60;;;;;;5066897;28;20021;-80
2022/02/05 12:02:17;;;;;;;8.10;2.20;;;7.70;74.20;;;;;;5070242;28;20047;-83
2022/02/05 12:04:43;;;;;;;6.55;1.90;;;7.60;73.80;;;;;;5068929;28;20021;-82
2022/02/05 12:07:11;;;;;;;9.68;2.33;;;7.60;74.10;;;;;;5070391;28;20024;-82
2022/02/05 12:09:46;;;;;;;7.72;1.95;;;7.60;73.80;;;;;;5068475;28;20024;-80
2022/02/05 12:12:34;;;;;;;6.50;1.70;;;7.70;74.10;;;;;;5069536;28;20123;-79
2022/02/05 12:15:16;;;;;;;5.13;1.80;;;7.80;74.30;;;;;;5064820;28;20020;-79
2022/02/05 12:18:11;;;;;;;6.72;1.85;;;7.90;74.00;;;;;;5068216;28;20030;-81
2022/02/05 12:26:20;;;;;;;6.40;2.20;;;8.00;73.00;;;;;;5069856;28;20025;-80
2022/02/05 12:28:50;;;;;;;6.22;1.60;;;8.00;72.80;;;;;;5064866;28;20036;-81
2022/02/05 12:31:18;;;;;;;8.25;2.20;;;8.00;72.60;;;;;;5065506;28;20123;-80
2022/02/05 12:33:53;;;;;;;7.25;2.35;;;7.90;72.00;;;;;;5061475;28;20027;-80
2022/02/05 12:36:40;;;;;;;5.53;2.00;;;7.90;71.80;;;;;;5065945;28;20082;-79
2022/02/05 12:39:08;;;;;;;8.73;2.03;;;7.90;72.20;;;;;;5062269;28;20039;-81
2022/02/05 12:41:35;;;;;;;7.03;2.35;;;7.90;72.30;;;;;;5064781;28;20036;-81
2022/02/05 12:44:04;;;;;;;5.13;1.90;;;8.00;72.20;;;;;;5057997;28;20033;-79
2022/02/05 12:46:54;;;;;;;6.55;1.85;;;8.00;72.20;;;;;;5063769;28;20083;-78
2022/02/05 12:49:28;;;;;;;7.35;2.28;;;8.10;72.40;;;;;;5058804;28;20097;-81
2022/02/05 12:51:56;;;;;;;5.70;1.80;;;8.10;71.70;;;;;;5056139;28;20099;-82
2022/02/05 12:54:24;;;;;;;5.93;1.83;;;8.20;71.60;;;;;;5062407;28;20105;-82
2022/02/05 12:56:51;;;;;;;6.25;1.92;;;8.20;71.70;;;;;;5054556;28;20033;-82
2022/02/05 12:59:26;;;;;;;8.13;2.17;;;8.30;71.10;;;;;;5060068;28;20017;-80
2022/02/05 13:01:54;;;;;;;6.05;1.80;;;8.30;70.60;;;;;;5066208;28;20039;-80
2022/02/05 13:04:25;;;;;;;6.65;2.22;;;8.20;70.20;;;;;;5063546;28;20028;-80
2022/02/05 13:07:18;;;;;;;6.03;2.05;;;8.20;69.80;;;;;;5058441;28;20419;-80
2022/02/05 13:09:49;;;;;;;;;;;8.20;69.30;;;;;;5065389;28;20055;-80
2022/02/05 13:12:18;;;;;;;6.28;1.90;;;8.30;69.40;;;;;;5068478;28;19958;-80
2022/02/05 13:14:54;;;;;;;6.97;2.22;;;8.50;69.40;;;;;;5067259;28;20024;-80
2022/02/05 13:17:26;;;;;;;7.97;2.20;;;8.50;68.90;;;;;;5062723;28;20397;-80
2022/02/05 13:28:30;;;;;;;6.53;2.90;;;8.70;68.50;;;;;;5062836;28;20051;-80
2022/02/05 13:36:12;;;;;;;5.53;2.30;;;9.00;68.10;;;;;;5066840;28;20028;-81
2022/02/05 13:41:10;;;;;;;5.45;2.60;;;9.20;67.20;;;;;;5065717;28;20028;-81
2022/02/05 13:43:44;;;;;;;7.50;2.28;;;9.30;67.00;;;;;;5058114;28;20489;-79
2022/02/05 13:46:18;;;;;;;9.05;2.55;;;9.20;66.00;;;;;;5058819;28;20533;-81
2022/02/05 13:48:43;;;;;;;8.88;3.53;;;9.10;65.20;;;;;;5067213;28;20116;-80
2022/02/05 13:51:09;;;;;;;7.63;2.50;;;9.00;65.30;;;;;;5066922;28;20111;-80
2022/02/05 13:53:55;;;;;;;5.60;1.95;;;8.90;65.70;;;;;;5061233;28;20434;-80
2022/02/05 13:56:22;;;;;;;6.72;2.10;;;8.80;65.30;;;;;;5061366;28;20029;-79
2022/02/05 13:58:48;;;;;;;8.38;2.70;;;8.70;65.60;;;;;;5063796;28;20112;-79
2022/02/05 14:01:40;;;;;;;5.22;1.85;;;8.80;65.90;;;;;;5065667;28;20111;-80
2022/02/05 14:04:23;;;;;;;5.90;2.13;;;8.80;66.20;;;;;;5058116;28;20131;-81
2022/02/05 14:06:57;;;;;;;7.05;2.10;;;8.80;66.30;;;;;;5065080;28;20025;-80
2022/02/05 14:09:32;;;;;;;8.43;2.88;;;8.80;66.40;;;;;;5060519;28;20032;-80
2022/02/05 14:12:19;;;;;;;5.93;2.22;;;8.70;66.20;;;;;;5051551;28;20036;-81
2022/02/05 14:15:03;;;;;;;7.93;2.67;;;8.70;66.60;;;;;;5058646;28;20016;-81
2022/02/05 14:17:29;;;;;;;6.20;2.30;;;8.70;66.90;;;;;;5063317;28;20094;-81
2022/02/05 14:20:05;;;;;;;8.15;3.33;;;8.70;66.80;;;;;;5063410;28;20032;-81
2022/02/05 14:22:34;;;;;;;6.72;2.40;;;8.70;67.00;;;;;;5060006;28;20052;-80
2022/02/05 14:25:16;;;;;;;6.50;2.50;;;8.60;66.50;;;;;;5064260;28;20020;-81
2022/02/05 14:28:15;;;;;;;7.18;2.20;;;8.50;66.10;;;;;;5063847;28;20024;-81
2022/02/05 14:30:45;;;;;;;6.57;2.13;;;8.50;66.30;;;;;;5062388;28;20114;-80
2022/02/05 14:33:12;;;;;;;7.25;2.20;;;8.50;66.70;;;;;;5063108;28;20024;-80
2022/02/05 14:40:47;;;;;;;6.40;2.60;;;8.50;66.60;;;;;;5063689;28;20060;-80
2022/02/05 14:43:16;;;;;;;7.53;2.25;;;8.50;66.70;;;;;;5065163;28;20569;-81
2022/02/05 14:45:42;;;;;;;6.32;1.80;;;8.50;66.80;;;;;;5065354;28;20058;-80
2022/02/05 14:48:08;;;;;;;6.18;2.40;;;8.50;67.10;;;;;;5067660;28;20020;-82
2022/02/05 14:50:34;;;;;;;8.45;2.35;;;8.60;67.20;;;;;;5065929;28;20040;-81
2022/02/05 14:53:00;;;;;;;5.82;2.05;;;8.60;66.90;;;;;;5058882;28;20497;-82
2022/02/05 14:55:25;;;;;;;6.20;2.10;;;8.50;67.10;;;;;;5055263;28;20060;-80
2022/02/05 14:57:51;;;;;;;4.22;1.98;;;8.50;67.00;;;;;;5066221;28;20188;-80
2022/02/05 15:00:17;;;;;;;5.80;1.80;;;8.50;67.30;;;;;;5068118;28;20016;-81
2022/02/05 15:02:43;;;;;;;5.35;2.00;;;8.50;67.60;;;;;;5061191;28;20128;-81
2022/02/05 15:05:11;;;;;;;3.83;1.80;;;8.50;67.80;;;;;;5065718;28;20052;-82
2022/02/05 15:07:40;;;;;;;7.28;2.20;;;8.50;67.90;;;;;;5065170;28;20089;-81
2022/02/05 15:10:07;;;;;;;5.57;2.00;;;8.50;68.00;;;;;;5062036;28;20083;-83
2022/02/05 15:12:33;;;;;;;4.93;1.90;;;8.50;68.30;;;;;;5051327;28;20041;-81
2022/02/05 15:14:59;;;;;;;4.03;2.00;;;8.50;68.40;;;;;;5059743;28;20016;-81
2022/02/05 15:17:24;;;;;;;6.90;1.95;;;8.50;68.50;;;;;;5070696;28;20621;-80
2022/02/05 15:19:50;;;;;;;6.20;1.90;;;8.50;68.70;;;;;;5069431;28;20024;-81
2022/02/05 15:22:16;;;;;;;5.00;1.70;;;8.50;68.80;;;;;;5070600;28;20433;-80
2022/02/05 15:24:41;;;;;;;4.63;1.83;;;8.50;69.60;;;;;;5069331;28;20103;-81
2022/02/05 15:27:07;;;;;;;5.80;1.88;;;8.50;69.00;;;;;;5064681;28;20742;-81
2022/02/05 15:29:33;;;;;;;5.53;1.70;;;8.50;69.10;;;;;;5066383;28;20040;-81
2022/02/05 15:31:59;;;;;;;6.53;1.70;;;8.50;69.20;;;;;;5060382;28;20728;-81
2022/02/05 15:34:25;;;;;;;7.30;2.05;;;8.50;69.40;;;;;;5063107;28;20020;-81
2022/02/05 15:36:56;;;;;;;7.72;2.25;;;8.50;69.50;;;;;;5068920;28;20029;-81
2022/02/05 15:44:46;;;;;;;4.78;2.22;;;8.50;69.90;;;;;;5059891;28;20032;-78
2022/02/05 15:47:11;;;;;;;6.15;1.88;;;8.50;70.10;;;;;;5059045;28;20033;-78
2022/02/05 15:49:37;;;;;;;8.25;2.38;;;8.50;70.20;;;;;;5060766;28;20100;-78
2022/02/05 15:52:05;;;;;;;9.18;2.10;;;8.50;70.40;;;;;;5058914;28;20154;-79
2022/02/05 15:54:31;;;;;;;7.75;2.30;;;8.40;70.40;;;;;;5058169;28;20463;-78
2022/02/05 15:59:32;;;;;;;8.98;2.75;;;8.40;70.50;;;;;;5063961;28;20032;-78
2022/02/05 16:01:58;;;;;;;6.65;2.47;;;8.40;70.70;;;;;;5065365;28;20028;-79
2022/02/05 16:04:23;;;;;;;8.70;2.58;;;8.30;70.80;;;;;;5069398;28;20033;-77
2022/02/05 16:06:49;;;;;;;6.30;2.00;;;8.30;70.80;;;;;;5068011;28;20032;-78
2022/02/05 16:09:14;;;;;;;7.43;2.30;;;8.40;71.10;;;;;;5070659;28;20107;-78
2022/02/05 16:11:40;;;;;;;9.35;2.70;;;8.40;71.00;;;;;;5069672;28;20036;-78